John Murtha Johnstown Cambria County Airport Johnstown US
ICAO: KJST
IATA: JST
Category: Medium
Scheduled Services: Yes

Elevation: 2284 ft
TransAlt. 18000 ft.

Airport Communications:
ATIS:118.325
CLEVELAND CNTR:121.2
CTAF:125.75
GND:121.6
KEYSTONE OPS ARNG:36.5
ALTOONA RDO:122.65
TWR:125.75
UNICOM:122.95

KJST Zoom In..

Runways:

(A) RW 05 length 4386 ft width 100 ft
---- / hdg 49

(B) RW 15 length 7003 ft width 150 ft
---- / hdg 154

(C) RW 23 length 4386 ft width 100 ft
---- / hdg 229

(D) RW 33 length 7003 ft width 150 ft
ILS 110.10 / hdg 334

Location; KJST
Day. 13 / Time. 12.54 Zulu
* Altimeter: 29.94
* Temperature: 18° c. 64.4°f.
* Wind from: 250° Speed 04 kn.
Dewpoint: 16° c.
Visibility: 10 Statute Miles.
Clouds: Broken 7000 ft.

KJST 131254Z AUTO 25004KT 10SM BKN070 18/16 A2994 RMK AO2 SLP129 T01830156 $

Going to: --> -->


Wind From 250°
Speed 04 kn.

 
 
jpsmedia worldairports.se 2020   terms of use